Time;durP1;ratioP1;P1;durP2;ratioP2;P2;SDS_P1;SDS_P2;PMS_P1;PMS_P2;Temp;Humidity;BMP_temperature;BMP_pressure;BME280_temperature;BME280_humidity;BME280_pressure;Samples;Min_cycle;Max_cycle;Signal;HPM_P1;HPM_P2
2023/06/03 00:02:02;;;;;;;2.10;0.70;;;11.30;71.20;;;;;;4994595;28;20026;-64
2023/06/03 00:04:31;;;;;;;2.90;1.00;;;11.30;71.30;;;;;;4993477;28;20030;-64
2023/06/03 00:06:57;;;;;;;2.22;0.90;;;11.20;71.80;;;;;;4991009;28;20022;-64
2023/06/03 00:09:23;;;;;;;1.05;0.80;;;11.20;72.20;;;;;;4991575;28;20057;-64
2023/06/03 00:11:49;;;;;;;2.55;0.80;;;11.20;71.90;;;;;;4995082;28;20060;-64
2023/06/03 00:14:15;;;;;;;2.70;0.85;;;11.20;72.10;;;;;;4989693;28;20030;-64
2023/06/03 00:16:46;;;;;;;1.42;0.77;;;11.20;72.20;;;;;;4986061;28;20030;-63
2023/06/03 00:19:14;;;;;;;3.30;0.95;;;11.20;71.80;;;;;;4991551;28;20493;-63
2023/06/03 00:21:45;;;;;;;2.00;1.00;;;11.20;72.30;;;;;;4987623;28;20058;-64
2023/06/03 00:24:11;;;;;;;1.77;1.00;;;11.20;72.50;;;;;;4985302;28;20037;-64
2023/06/03 00:26:37;;;;;;;0.82;0.70;;;11.10;72.50;;;;;;4993625;28;20026;-63
2023/06/03 00:29:03;;;;;;;5.10;0.85;;;11.10;72.50;;;;;;4991442;28;20026;-64
2023/06/03 00:31:28;;;;;;;1.77;0.90;;;11.00;72.60;;;;;;4989473;28;20042;-63
2023/06/03 00:33:54;;;;;;;2.72;0.93;;;11.00;73.30;;;;;;4993866;28;20034;-63
2023/06/03 00:36:20;;;;;;;2.97;1.10;;;10.90;73.30;;;;;;4990941;28;20030;-62
2023/06/03 00:38:45;;;;;;;1.48;1.10;;;10.90;73.20;;;;;;4992888;28;20037;-62
2023/06/03 00:41:11;;;;;;;1.65;1.05;;;10.90;73.60;;;;;;4993795;28;20038;-63
2023/06/03 00:43:37;;;;;;;3.35;1.25;;;10.80;73.40;;;;;;4973418;28;20027;-63
2023/06/03 00:46:03;;;;;;;2.03;1.10;;;10.90;73.40;;;;;;4997778;28;20032;-63
2023/06/03 00:48:29;;;;;;;2.20;1.30;;;10.80;73.70;;;;;;4980330;28;20117;-65
2023/06/03 00:50:56;;;;;;;1.30;1.10;;;10.70;74.10;;;;;;4994303;28;20040;-65
2023/06/03 00:53:22;;;;;;;4.53;1.30;;;10.70;74.10;;;;;;4991760;28;20117;-62
2023/06/03 00:55:48;;;;;;;4.20;1.40;;;10.80;74.00;;;;;;4992104;28;20100;-63
2023/06/03 00:58:14;;;;;;;2.35;1.20;;;10.70;74.00;;;;;;4989036;28;20033;-63
2023/06/03 01:00:40;;;;;;;2.83;1.30;;;10.70;74.10;;;;;;4990305;28;20207;-65
2023/06/03 01:03:13;;;;;;;2.50;1.60;;;10.60;74.20;;;;;;4990061;28;20116;-62
2023/06/03 01:05:41;;;;;;;2.95;1.30;;;10.60;74.10;;;;;;4990958;28;20262;-64
2023/06/03 01:08:31;;;;;;;4.03;1.42;;;10.50;74.00;;;;;;4989408;28;20075;-63
2023/06/03 01:11:11;;;;;;;4.07;1.00;;;10.50;74.10;;;;;;4993765;28;20034;-64
2023/06/03 01:13:55;;;;;;;3.38;1.10;;;10.40;74.30;;;;;;4989280;28;20129;-62
2023/06/03 01:16:23;;;;;;;1.70;0.80;;;10.30;74.50;;;;;;5004093;28;20030;-64
2023/06/03 01:18:51;;;;;;;2.83;1.30;;;10.30;74.60;;;;;;4993776;28;20452;-63
2023/06/03 01:21:17;;;;;;;2.00;0.98;;;10.20;74.60;;;;;;4990307;28;20031;-63
2023/06/03 01:23:45;;;;;;;3.33;0.98;;;10.20;74.90;;;;;;4991272;28;20030;-63
2023/06/03 01:26:16;;;;;;;2.08;1.20;;;10.10;75.20;;;;;;4991334;28;20025;-63
2023/06/03 01:28:43;;;;;;;2.75;1.30;;;10.10;75.50;;;;;;4993072;28;20444;-63
2023/06/03 01:31:09;;;;;;;1.88;1.02;;;10.00;75.60;;;;;;4990988;28;20045;-63
2023/06/03 01:33:36;;;;;;;2.67;1.10;;;9.90;75.90;;;;;;4991950;28;20022;-63
2023/06/03 01:36:04;;;;;;;1.90;1.25;;;9.90;76.00;;;;;;4989081;28;20040;-62
2023/06/03 01:38:30;;;;;;;2.20;1.30;;;9.80;76.20;;;;;;4978803;28;20053;-64
2023/06/03 01:40:59;;;;;;;3.75;1.75;;;9.80;76.60;;;;;;4992321;28;20487;-63
2023/06/03 01:43:25;;;;;;;2.63;1.10;;;9.70;76.80;;;;;;4991526;28;20756;-63
2023/06/03 01:45:51;;;;;;;3.90;1.10;;;9.70;77.20;;;;;;4991358;28;20037;-62
2023/06/03 01:48:17;;;;;;;2.75;1.20;;;9.60;77.50;;;;;;4993454;28;20036;-63
2023/06/03 01:50:44;;;;;;;4.32;1.30;;;9.50;77.60;;;;;;4990454;28;20319;-63
2023/06/03 01:53:14;;;;;;;2.38;1.25;;;9.50;78.10;;;;;;4990042;28;20029;-63
2023/06/03 01:55:42;;;;;;;2.33;1.00;;;9.50;78.40;;;;;;4991789;28;20030;-63
2023/06/03 01:58:07;;;;;;;2.80;1.10;;;9.40;78.50;;;;;;4989516;28;20107;-63
2023/06/03 02:00:33;;;;;;;2.42;1.13;;;9.40;78.80;;;;;;4988534;28;20185;-64
2023/06/03 02:02:59;;;;;;;1.27;1.10;;;9.40;78.90;;;;;;4991071;28;20064;-63
2023/06/03 02:05:25;;;;;;;1.60;1.10;;;9.30;79.00;;;;;;4987582;28;20034;-63
2023/06/03 02:07:50;;;;;;;2.92;1.30;;;9.20;79.20;;;;;;4993179;28;20025;-63
2023/06/03 02:10:16;;;;;;;4.25;1.40;;;9.20;79.50;;;;;;4988964;28;20053;-63
2023/06/03 02:12:42;;;;;;;3.83;1.40;;;9.10;79.70;;;;;;4991017;28;20481;-63
2023/06/03 02:15:15;;;;;;;4.25;1.50;;;9.10;79.90;;;;;;4989901;28;20033;-64
2023/06/03 02:17:41;;;;;;;2.00;1.13;;;9.10;80.10;;;;;;4989683;28;20018;-63
2023/06/03 02:20:08;;;;;;;1.95;1.20;;;9.10;80.50;;;;;;4989216;28;20030;-63
2023/06/03 02:22:34;;;;;;;1.63;1.02;;;9.00;80.60;;;;;;4993548;28;20026;-63
2023/06/03 02:25:00;;;;;;;2.30;1.17;;;9.00;81.00;;;;;;4989482;28;20022;-64
2023/06/03 02:27:27;;;;;;;2.80;0.90;;;8.90;81.40;;;;;;4988644;28;20069;-63
2023/06/03 02:29:53;;;;;;;2.40;1.33;;;8.90;81.40;;;;;;4989637;28;20490;-62
2023/06/03 02:32:20;;;;;;;1.50;1.00;;;8.90;81.50;;;;;;4982931;28;20034;-62
2023/06/03 02:34:50;;;;;;;1.88;1.10;;;8.80;81.40;;;;;;4991473;28;20032;-62
2023/06/03 02:37:16;;;;;;;2.50;1.10;;;8.80;81.60;;;;;;4988637;28;20038;-62
2023/06/03 02:39:46;;;;;;;1.90;1.00;;;8.80;82.10;;;;;;4988852;28;20038;-62
2023/06/03 02:42:13;;;;;;;1.30;0.93;;;8.80;82.40;;;;;;4990930;28;20088;-62
2023/06/03 02:44:39;;;;;;;1.98;1.00;;;8.70;82.80;;;;;;4989854;28;20022;-63
2023/06/03 02:47:06;;;;;;;1.83;0.98;;;8.70;82.90;;;;;;5005428;28;20026;-65
2023/06/03 02:49:32;;;;;;;1.48;1.02;;;8.70;83.30;;;;;;4988538;28;20026;-61
2023/06/03 02:51:58;;;;;;;2.05;1.08;;;8.70;83.70;;;;;;4986814;28;20486;-62
2023/06/03 02:54:24;;;;;;;1.50;1.00;;;8.60;83.60;;;;;;4988137;28;20085;-63
2023/06/03 02:56:50;;;;;;;2.38;1.00;;;8.60;83.90;;;;;;4990490;28;20139;-65
2023/06/03 02:59:16;;;;;;;1.38;1.00;;;8.60;84.80;;;;;;4984153;28;20462;-62
2023/06/03 03:01:42;;;;;;;1.40;0.90;;;8.60;84.40;;;;;;4989448;28;20026;-61
2023/06/03 03:04:08;;;;;;;3.08;1.20;;;8.50;84.50;;;;;;4980321;28;20026;-63
2023/06/03 03:06:37;;;;;;;1.58;1.08;;;8.50;84.80;;;;;;4977632;28;20513;-62
2023/06/03 03:09:04;;;;;;;2.35;0.80;;;8.50;84.80;;;;;;4989019;28;20034;-62
2023/06/03 03:11:43;;;;;;;3.40;1.20;;;8.50;84.80;;;;;;4989807;28;20057;-61
2023/06/03 03:14:09;;;;;;;1.75;1.15;;;8.40;85.10;;;;;;4986561;28;20027;-62
2023/06/03 03:16:36;;;;;;;2.35;1.15;;;8.50;85.50;;;;;;4990473;28;20026;-62
2023/06/03 03:19:03;;;;;;;1.77;0.90;;;8.40;85.80;;;;;;4987585;28;20470;-62
2023/06/03 03:21:29;;;;;;;1.30;1.00;;;8.40;86.10;;;;;;4990605;28;20084;-63
2023/06/03 03:23:58;;;;;;;2.45;1.10;;;8.40;86.50;;;;;;4990859;28;20033;-63
2023/06/03 03:26:25;;;;;;;1.20;1.00;;;8.40;86.60;;;;;;4989014;28;20581;-63
2023/06/03 03:28:55;;;;;;;4.72;1.67;;;8.40;86.60;;;;;;4989235;28;20459;-63
2023/06/03 03:31:22;;;;;;;5.07;1.00;;;8.40;87.00;;;;;;4987909;28;20031;-62
2023/06/03 03:33:49;;;;;;;4.90;0.95;;;8.50;87.30;;;;;;4992160;28;20452;-62
2023/06/03 03:36:22;;;;;;;2.25;1.20;;;8.40;87.50;;;;;;4988500;28;20030;-62
2023/06/03 03:39:08;;;;;;;3.28;1.27;;;8.40;88.40;;;;;;4983683;28;20525;-63
2023/06/03 03:41:44;;;;;;;2.00;1.20;;;8.50;88.00;;;;;;4990931;28;20041;-62
2023/06/03 03:44:12;;;;;;;1.48;1.00;;;8.50;88.10;;;;;;4993188;28;20034;-62
2023/06/03 03:46:51;;;;;;;2.08;1.10;;;8.60;88.40;;;;;;4992749;28;20030;-63
2023/06/03 03:49:26;;;;;;;2.45;1.10;;;8.60;88.50;;;;;;4991192;28;20589;-62
2023/06/03 03:51:52;;;;;;;2.05;1.10;;;8.60;88.50;;;;;;4993752;28;20029;-63
2023/06/03 03:54:24;;;;;;;2.58;1.30;;;8.60;88.80;;;;;;4992787;28;20030;-62
2023/06/03 03:56:57;;;;;;;4.88;1.27;;;8.70;89.10;;;;;;4990045;28;20038;-62
2023/06/03 03:59:27;;;;;;;2.92;1.02;;;8.70;89.40;;;;;;4990779;28;20387;-62
2023/06/03 04:01:53;;;;;;;2.45;1.10;;;8.80;89.50;;;;;;4989042;28;20030;-63
2023/06/03 04:04:42;;;;;;;2.42;1.20;;;8.80;89.50;;;;;;4991280;28;20026;-61
2023/06/03 04:07:10;;;;;;;;;;;8.80;89.70;;;;;;4991507;28;20023;-63
2023/06/03 04:09:38;;;;;;;1.67;1.00;;;8.80;89.80;;;;;;4992424;28;19913;-62
2023/06/03 04:12:10;;;;;;;1.45;1.00;;;8.80;90.00;;;;;;4993446;28;20029;-62
2023/06/03 04:14:48;;;;;;;3.50;1.08;;;8.80;90.10;;;;;;4992047;28;20037;-61
2023/06/03 04:17:19;;;;;;;1.23;1.00;;;8.80;90.20;;;;;;4990699;28;20057;-62
2023/06/03 04:19:47;;;;;;;1.33;1.10;;;8.80;90.20;;;;;;4989924;28;20121;-62
2023/06/03 04:22:24;;;;;;;1.40;0.90;;;8.80;90.30;;;;;;4990447;28;20036;-62
2023/06/03 04:25:00;;;;;;;2.20;0.90;;;8.90;90.40;;;;;;4990837;28;20493;-62
2023/06/03 04:27:42;;;;;;;4.63;1.10;;;8.80;90.70;;;;;;4981522;28;20116;-62
2023/06/03 04:30:10;;;;;;;1.33;0.98;;;8.90;90.90;;;;;;4991587;28;20065;-62
2023/06/03 04:32:36;;;;;;;1.27;0.90;;;8.90;90.80;;;;;;4994267;28;20041;-61
2023/06/03 04:35:03;;;;;;;2.17;1.00;;;9.00;90.80;;;;;;4990624;28;20025;-62
2023/06/03 04:37:31;;;;;;;4.15;1.10;;;9.10;90.80;;;;;;5006795;28;20026;-62
2023/06/03 04:39:58;;;;;;;2.28;0.90;;;9.20;91.00;;;;;;4993631;28;20041;-62
2023/06/03 04:42:26;;;;;;;1.23;0.80;;;9.20;90.30;;;;;;5007201;28;20373;-62
2023/06/03 04:44:58;;;;;;;0.52;0.52;;;9.30;90.50;;;;;;4991906;28;20402;-62
2023/06/03 04:47:28;;;;;;;4.95;0.90;;;9.40;90.30;;;;;;4989902;28;20034;-62
2023/06/03 04:49:55;;;;;;;0.63;0.63;;;9.50;90.30;;;;;;4992168;28;20026;-62
2023/06/03 04:52:22;;;;;;;1.23;1.02;;;9.60;90.50;;;;;;4989835;28;20084;-62
2023/06/03 04:54:51;;;;;;;2.25;1.05;;;9.60;90.70;;;;;;4988792;28;20029;-62
2023/06/03 04:57:20;;;;;;;2.53;1.05;;;9.70;90.30;;;;;;4991637;28;20063;-62
2023/06/03 04:59:46;;;;;;;1.85;1.15;;;9.80;90.50;;;;;;4991458;28;20034;-62
2023/06/03 05:02:16;;;;;;;0.90;0.60;;;9.90;90.70;;;;;;4991393;28;20837;-62
2023/06/03 05:04:44;;;;;;;2.83;0.70;;;10.00;87.70;;;;;;4992127;28;20026;-63
2023/06/03 05:07:11;;;;;;;2.25;0.70;;;10.10;84.50;;;;;;4989960;28;20033;-63
2023/06/03 05:09:38;;;;;;;1.35;0.98;;;10.10;86.00;;;;;;4992908;28;20025;-63
2023/06/03 05:12:04;;;;;;;5.88;1.02;;;10.20;87.90;;;;;;4990073;28;20820;-62
2023/06/03 05:14:31;;;;;;;1.58;0.82;;;10.30;87.20;;;;;;4992565;28;20026;-62
2023/06/03 05:16:57;;;;;;;2.05;1.17;;;10.50;85.60;;;;;;4994928;28;20064;-65
2023/06/03 05:19:23;;;;;;;2.35;0.90;;;10.60;86.60;;;;;;4990560;28;20061;-65
2023/06/03 05:21:49;;;;;;;1.40;0.60;;;10.80;83.50;;;;;;4998299;28;20025;-63
2023/06/03 05:24:15;;;;;;;3.47;0.77;;;11.10;81.30;;;;;;5008539;28;20018;-63
2023/06/03 05:26:41;;;;;;;3.97;0.82;;;11.40;79.40;;;;;;4993644;28;20723;-63
2023/06/03 05:29:08;;;;;;;1.13;1.00;;;11.60;79.70;;;;;;4992627;28;20405;-63
2023/06/03 05:31:34;;;;;;;0.93;0.63;;;11.70;77.50;;;;;;5006333;28;20027;-63
2023/06/03 05:34:02;;;;;;;1.23;0.75;;;11.80;78.70;;;;;;4990346;28;20029;-63
2023/06/03 05:36:28;;;;;;;1.33;0.90;;;11.90;75.40;;;;;;4991108;28;20041;-63
2023/06/03 05:38:57;;;;;;;1.58;1.00;;;12.00;74.60;;;;;;4988488;28;20030;-63
2023/06/03 05:41:24;;;;;;;5.72;1.08;;;12.10;76.80;;;;;;4987699;28;20117;-62
2023/06/03 05:43:52;;;;;;;3.45;0.90;;;12.20;73.50;;;;;;4992208;28;20045;-63
2023/06/03 05:46:20;;;;;;;1.80;0.80;;;12.20;73.40;;;;;;4988911;28;20030;-63
2023/06/03 05:48:45;;;;;;;2.00;0.93;;;12.30;74.00;;;;;;4993007;28;20029;-63
2023/06/03 05:51:11;;;;;;;2.00;0.80;;;12.50;69.00;;;;;;4989014;28;20076;-63
2023/06/03 05:53:38;;;;;;;4.60;0.95;;;12.70;69.90;;;;;;4991134;28;20434;-63
2023/06/03 05:56:04;;;;;;;1.90;0.93;;;13.00;70.00;;;;;;4991145;28;20026;-63
2023/06/03 05:58:31;;;;;;;2.60;0.80;;;13.20;68.40;;;;;;4990643;28;20037;-63
2023/06/03 06:00:57;;;;;;;3.40;1.23;;;13.40;68.60;;;;;;4992265;28;20030;-63
2023/06/03 06:03:23;;;;;;;5.45;1.15;;;13.50;66.90;;;;;;4990740;28;20489;-64
2023/06/03 06:05:49;;;;;;;2.67;0.88;;;13.60;68.90;;;;;;4993375;28;20034;-63
2023/06/03 06:08:14;;;;;;;1.83;1.23;;;13.60;66.40;;;;;;4992045;28;20034;-64
2023/06/03 06:10:41;;;;;;;3.22;1.20;;;13.80;64.90;;;;;;4991683;28;20030;-63
2023/06/03 06:13:07;;;;;;;4.35;1.02;;;13.90;65.50;;;;;;4989895;28;20038;-63
2023/06/03 06:15:34;;;;;;;2.72;1.27;;;14.00;65.40;;;;;;4989417;28;20038;-63
2023/06/03 06:18:01;;;;;;;3.42;1.00;;;14.10;64.80;;;;;;4992980;28;20127;-63
2023/06/03 06:20:26;;;;;;;3.33;1.10;;;14.20;63.10;;;;;;4987652;28;20030;-64
2023/06/03 06:22:53;;;;;;;5.25;1.25;;;14.20;63.10;;;;;;4993439;28;20033;-64
2023/06/03 06:25:19;;;;;;;2.25;0.70;;;14.20;62.10;;;;;;4990138;28;20030;-64
2023/06/03 06:27:47;;;;;;;3.83;1.17;;;14.20;62.80;;;;;;4989803;28;20587;-64
2023/06/03 06:30:15;;;;;;;2.25;1.02;;;14.40;61.30;;;;;;5000912;28;20536;-65
2023/06/03 06:32:49;;;;;;;6.53;1.27;;;14.40;61.10;;;;;;4989565;28;20069;-64
2023/06/03 06:35:17;;;;;;;3.97;1.25;;;14.40;61.90;;;;;;4986626;28;20033;-65
2023/06/03 06:37:44;;;;;;;1.65;1.10;;;14.40;62.20;;;;;;4990528;28;20060;-65
2023/06/03 06:40:19;;;;;;;2.17;1.00;;;14.60;61.10;;;;;;4984887;28;20053;-65
2023/06/03 06:42:45;;;;;;;4.93;1.30;;;14.50;59.80;;;;;;4988371;28;20505;-65
2023/06/03 06:45:44;;;;;;;3.35;1.27;;;14.50;59.00;;;;;;4989496;28;20069;-65
2023/06/03 06:48:12;;;;;;;3.50;1.00;;;14.60;59.50;;;;;;4988628;28;20058;-66
2023/06/03 06:50:53;;;;;;;2.08;1.25;;;14.60;59.80;;;;;;4991683;28;20025;-65
2023/06/03 06:53:23;;;;;;;3.15;1.30;;;14.70;60.60;;;;;;5002970;28;20125;-64
2023/06/03 06:56:11;;;;;;;5.43;1.20;;;14.70;58.90;;;;;;4990941;28;20026;-65
2023/06/03 06:58:45;;;;;;;5.38;1.13;;;14.90;59.80;;;;;;4975949;28;20069;-64
2023/06/03 07:01:11;;;;;;;3.55;1.15;;;14.90;58.90;;;;;;4989136;28;20144;-64
2023/06/03 07:03:42;;;;;;;2.42;1.10;;;14.90;58.70;;;;;;4992039;28;20026;-65
2023/06/03 07:06:10;;;;;;;3.25;1.15;;;15.00;59.00;;;;;;4987969;28;20060;-64
2023/06/03 07:08:37;;;;;;;2.20;1.33;;;15.10;58.30;;;;;;4987338;28;20033;-64
2023/06/03 07:11:04;;;;;;;3.92;1.45;;;15.30;58.10;;;;;;4992195;28;20405;-64
2023/06/03 07:13:38;;;;;;;2.90;1.30;;;15.40;57.50;;;;;;4990421;28;20118;-65
2023/06/03 07:16:06;;;;;;;1.95;1.15;;;15.50;57.80;;;;;;4992461;28;20030;-64
2023/06/03 07:18:33;;;;;;;4.15;1.30;;;15.60;57.90;;;;;;4994699;28;20033;-65
2023/06/03 07:20:59;;;;;;;2.90;1.20;;;15.80;56.80;;;;;;4990828;28;20037;-65
2023/06/03 07:23:27;;;;;;;2.53;1.00;;;15.80;56.40;;;;;;4991053;28;20390;-64
2023/06/03 07:25:55;;;;;;;1.15;0.90;;;16.00;56.10;;;;;;4992988;28;20140;-65
2023/06/03 07:28:33;;;;;;;5.20;1.20;;;16.10;55.80;;;;;;4991980;28;20027;-65
2023/06/03 07:31:10;;;;;;;5.10;1.33;;;16.20;55.60;;;;;;4993105;28;20529;-64
2023/06/03 07:33:49;;;;;;;2.20;0.90;;;16.30;54.80;;;;;;4993338;28;20768;-65
2023/06/03 07:36:20;;;;;;;3.85;0.82;;;16.20;52.80;;;;;;5010175;28;20030;-64
2023/06/03 07:39:06;;;;;;;1.48;0.90;;;16.30;53.60;;;;;;4993648;28;20041;-64
2023/06/03 07:41:38;;;;;;;5.18;0.90;;;16.30;53.80;;;;;;5010279;28;20030;-64
2023/06/03 07:44:10;;;;;;;3.50;1.33;;;16.40;53.30;;;;;;4991737;28;20023;-64
2023/06/03 07:46:44;;;;;;;3.50;1.00;;;16.50;53.30;;;;;;4988678;28;20383;-65
2023/06/03 07:49:15;;;;;;;1.80;0.95;;;16.60;53.10;;;;;;4994266;28;20084;-65
2023/06/03 07:51:46;;;;;;;3.67;1.10;;;16.60;53.30;;;;;;4994827;28;20915;-65
2023/06/03 07:54:13;;;;;;;3.10;0.90;;;16.70;53.00;;;;;;4990897;28;20066;-64
2023/06/03 07:56:39;;;;;;;1.55;0.75;;;16.70;52.30;;;;;;4995732;28;20131;-64
2023/06/03 07:59:06;;;;;;;2.40;0.93;;;16.70;52.20;;;;;;4992003;28;20042;-65
2023/06/03 08:01:35;;;;;;;2.70;1.30;;;16.80;52.40;;;;;;4992412;28;20034;-64
2023/06/03 08:04:04;;;;;;;2.28;1.02;;;16.90;52.60;;;;;;4994877;28;20046;-65
2023/06/03 08:06:32;;;;;;;2.45;1.27;;;16.90;52.60;;;;;;4995946;28;20026;-64
2023/06/03 08:08:59;;;;;;;4.47;1.10;;;17.10;52.20;;;;;;4992878;28;20486;-65
2023/06/03 08:11:25;;;;;;;3.78;1.17;;;17.10;50.60;;;;;;4991815;28;20171;-65
2023/06/03 08:13:55;;;;;;;6.45;1.20;;;17.20;51.30;;;;;;4994856;28;20040;-65
2023/06/03 08:16:21;;;;;;;3.35;1.02;;;17.30;51.20;;;;;;4993823;28;20172;-66
2023/06/03 08:18:50;;;;;;;4.20;1.13;;;17.30;50.20;;;;;;4995199;28;20844;-65
2023/06/03 08:21:18;;;;;;;2.17;0.80;;;17.40;50.70;;;;;;4989283;28;20041;-65
2023/06/03 08:23:44;;;;;;;4.57;1.20;;;17.50;49.10;;;;;;4990463;28;20034;-65
2023/06/03 08:26:11;;;;;;;3.30;0.93;;;17.50;49.40;;;;;;4993817;28;20552;-65
2023/06/03 08:28:40;;;;;;;5.80;0.88;;;17.50;49.50;;;;;;4992502;28;20022;-65
2023/06/03 08:31:06;;;;;;;3.63;0.70;;;17.60;49.40;;;;;;4991816;28;20025;-65
2023/06/03 08:33:32;;;;;;;2.05;0.80;;;17.70;49.20;;;;;;4993361;28;20038;-65
2023/06/03 08:35:58;;;;;;;1.67;0.90;;;17.80;48.70;;;;;;4992749;28;20116;-65
2023/06/03 08:38:24;;;;;;;7.22;1.25;;;17.90;48.90;;;;;;4990320;28;20026;-65
2023/06/03 08:40:52;;;;;;;5.25;1.25;;;17.90;48.60;;;;;;4993326;28;20117;-65
2023/06/03 08:43:21;;;;;;;1.02;0.60;;;18.00;48.70;;;;;;4987659;28;20053;-65
2023/06/03 08:46:02;;;;;;;3.95;1.00;;;18.10;48.40;;;;;;4980905;28;20053;-65
2023/06/03 08:48:51;;;;;;;1.23;0.85;;;18.20;48.10;;;;;;4981398;28;20064;-66
2023/06/03 08:51:21;;;;;;;5.20;1.42;;;18.30;48.80;;;;;;4982077;28;20148;-65
2023/06/03 08:53:52;;;;;;;2.60;1.00;;;18.50;47.20;;;;;;4980971;28;20033;-66
2023/06/03 08:56:20;;;;;;;2.60;1.00;;;18.60;47.90;;;;;;4981427;28;20115;-66
2023/06/03 08:58:54;;;;;;;5.88;1.10;;;18.70;47.30;;;;;;4981698;28;20117;-66
2023/06/03 09:01:32;;;;;;;6.78;1.02;;;18.80;47.00;;;;;;4982944;28;20180;-66
2023/06/03 09:04:00;;;;;;;4.15;1.20;;;18.90;46.40;;;;;;4983829;28;20034;-65
2023/06/03 09:06:26;;;;;;;1.67;0.82;;;19.00;46.50;;;;;;4983710;28;20034;-66
2023/06/03 09:08:53;;;;;;;4.50;1.13;;;19.10;46.00;;;;;;4983425;28;20058;-66
2023/06/03 09:11:20;;;;;;;3.17;1.15;;;19.20;47.10;;;;;;4983628;28;20108;-66
2023/06/03 09:13:46;;;;;;;2.75;0.85;;;19.30;45.90;;;;;;4983588;28;20125;-66
2023/06/03 09:16:13;;;;;;;3.47;1.00;;;19.50;46.00;;;;;;4997951;28;20026;-66
2023/06/03 09:18:40;;;;;;;2.50;0.98;;;19.50;44.40;;;;;;4983578;28;20561;-66
2023/06/03 09:21:10;;;;;;;2.70;0.80;;;19.50;45.80;;;;;;4983137;28;20030;-66
2023/06/03 09:23:38;;;;;;;2.72;0.80;;;19.60;44.80;;;;;;4982861;28;20038;-66
2023/06/03 09:26:05;;;;;;;4.13;1.00;;;19.70;43.30;;;;;;4981303;28;20585;-65
2023/06/03 09:28:32;;;;;;;1.58;0.70;;;19.70;43.40;;;;;;4982346;28;20034;-66
2023/06/03 09:30:57;;;;;;;5.88;1.40;;;19.80;44.30;;;;;;4991957;28;20033;-65
2023/06/03 09:33:23;;;;;;;1.13;0.90;;;19.90;44.10;;;;;;4990639;28;20057;-66
2023/06/03 09:36:12;;;;;;;2.63;1.10;;;20.10;44.10;;;;;;4997519;28;20034;-66
2023/06/03 09:38:56;;;;;;;1.25;0.80;;;20.40;42.40;;;;;;4991941;28;20038;-66
2023/06/03 09:41:26;;;;;;;1.15;0.90;;;20.70;41.90;;;;;;4991478;28;20096;-65
2023/06/03 09:44:02;;;;;;;1.50;0.95;;;20.80;43.60;;;;;;4992442;28;20030;-65
2023/06/03 09:46:33;;;;;;;8.48;2.03;;;20.80;42.50;;;;;;4989761;28;20069;-66
2023/06/03 09:49:18;;;;;;;3.13;1.05;;;20.70;43.10;;;;;;4992657;28;20041;-68
2023/06/03 09:51:49;;;;;;;2.92;1.15;;;20.50;43.80;;;;;;4985257;28;20149;-67
2023/06/03 09:54:20;;;;;;;5.03;1.23;;;20.60;43.30;;;;;;4989143;28;20084;-67
2023/06/03 09:56:46;;;;;;;5.03;1.13;;;20.70;41.10;;;;;;4987522;28;20525;-67
2023/06/03 09:59:18;;;;;;;2.65;1.30;;;20.60;42.70;;;;;;4990921;28;20707;-66
2023/06/03 10:01:47;;;;;;;1.35;0.93;;;20.60;40.90;;;;;;4991121;28;20838;-67
2023/06/03 10:04:20;;;;;;;1.33;0.80;;;20.80;41.50;;;;;;4988447;28;20026;-68
2023/06/03 10:06:47;;;;;;;2.33;0.90;;;20.90;40.80;;;;;;4990889;28;20040;-66
2023/06/03 10:09:20;;;;;;;3.35;0.70;;;20.80;40.30;;;;;;4988357;28;20049;-68
2023/06/03 10:11:50;;;;;;;3.70;0.90;;;20.90;40.40;;;;;;4990997;28;20036;-67
2023/06/03 10:14:21;;;;;;;2.67;0.93;;;20.80;40.30;;;;;;4986299;28;20034;-67
2023/06/03 10:17:01;;;;;;;2.00;1.00;;;20.70;38.60;;;;;;4992937;28;20033;-67
2023/06/03 10:19:27;;;;;;;2.30;0.93;;;20.70;41.30;;;;;;4990583;28;20030;-68
2023/06/03 10:21:54;;;;;;;2.15;0.90;;;20.70;40.20;;;;;;4990061;28;20574;-67
2023/06/03 10:24:22;;;;;;;1.75;0.77;;;20.70;40.60;;;;;;4990152;28;20565;-67
2023/06/03 10:26:50;;;;;;;2.05;0.80;;;20.90;40.50;;;;;;4993648;28;20030;-68
2023/06/03 10:29:15;;;;;;;3.28;0.77;;;21.10;37.60;;;;;;4989897;28;20113;-67
2023/06/03 10:31:44;;;;;;;1.88;0.75;;;21.30;37.30;;;;;;4989567;28;20112;-68
2023/06/03 10:34:16;;;;;;;4.50;1.05;;;21.50;38.80;;;;;;4988554;28;20509;-67
2023/06/03 10:36:43;;;;;;;8.13;2.28;;;21.60;38.20;;;;;;4992138;28;20693;-67
2023/06/03 10:39:11;;;;;;;2.53;1.05;;;21.80;38.70;;;;;;4989171;28;20029;-68
2023/06/03 10:41:38;;;;;;;3.55;1.05;;;21.90;39.40;;;;;;4991989;28;20042;-67
2023/06/03 10:44:04;;;;;;;2.80;1.10;;;22.00;38.30;;;;;;4988130;28;20036;-66
2023/06/03 10:46:33;;;;;;;1.67;0.90;;;22.00;39.10;;;;;;4990234;28;20042;-68
2023/06/03 10:49:01;;;;;;;3.15;0.80;;;22.10;36.40;;;;;;4990659;28;20780;-67
2023/06/03 10:51:33;;;;;;;4.05;0.88;;;22.10;38.00;;;;;;4988903;28;20035;-66
2023/06/03 10:54:17;;;;;;;2.00;0.70;;;22.30;38.40;;;;;;4992046;28;20117;-66
2023/06/03 10:57:11;;;;;;;2.42;0.82;;;22.70;38.00;;;;;;4988855;28;20030;-66
2023/06/03 10:59:45;;;;;;;4.50;0.75;;;22.90;38.00;;;;;;4989262;28;20148;-67
2023/06/03 11:02:12;;;;;;;3.63;0.90;;;22.90;36.30;;;;;;4986436;28;20072;-66
2023/06/03 11:04:38;;;;;;;7.03;1.00;;;22.70;36.30;;;;;;4991673;28;20030;-66
2023/06/03 11:07:30;;;;;;;3.00;0.80;;;22.50;37.00;;;;;;4986598;28;20069;-69
2023/06/03 11:09:57;;;;;;;2.40;1.08;;;22.30;37.70;;;;;;4980680;28;20038;-67
2023/06/03 11:12:50;;;;;;;2.75;1.23;;;22.20;37.50;;;;;;4980530;28;20034;-67
2023/06/03 11:15:16;;;;;;;7.13;1.48;;;22.10;36.90;;;;;;4980177;28;20061;-67
2023/06/03 11:18:19;;;;;;;2.95;1.48;;;21.90;37.10;;;;;;4980018;28;20076;-67
2023/06/03 11:20:45;;;;;;;6.18;2.53;;;21.80;38.50;;;;;;4980086;28;20473;-66
2023/06/03 11:23:44;;;;;;;2.20;0.70;;;21.70;38.70;;;;;;4980385;28;20026;-66
2023/06/03 11:26:33;;;;;;;1.88;0.93;;;21.60;37.60;;;;;;4996812;28;20470;-66
2023/06/03 11:29:02;;;;;;;1.60;0.88;;;21.70;38.60;;;;;;4976376;28;20406;-66
2023/06/03 11:31:29;;;;;;;2.03;1.08;;;21.60;38.50;;;;;;4989022;28;20036;-67
2023/06/03 11:34:25;;;;;;;2.40;1.00;;;21.50;38.50;;;;;;5002091;28;20044;-67
2023/06/03 11:36:52;;;;;;;3.90;1.10;;;21.50;39.10;;;;;;5001591;28;20561;-67
2023/06/03 11:39:22;;;;;;;4.97;1.15;;;21.50;38.10;;;;;;5001353;28;20030;-62
2023/06/03 11:42:06;;;;;;;6.03;1.08;;;21.40;40.70;;;;;;5004475;28;20041;-60
2023/06/03 11:44:33;;;;;;;3.65;0.93;;;21.40;39.40;;;;;;5003775;28;20042;-62
2023/06/03 11:46:58;;;;;;;2.95;0.90;;;21.20;38.10;;;;;;5004192;28;20038;-62
2023/06/03 11:49:25;;;;;;;6.32;1.00;;;21.10;39.10;;;;;;4990828;28;20041;-62
2023/06/03 11:51:57;;;;;;;1.27;0.80;;;21.10;40.10;;;;;;4983419;28;20034;-62
2023/06/03 11:54:23;;;;;;;1.80;0.98;;;21.20;39.30;;;;;;4983804;28;20483;-62
2023/06/03 11:56:54;;;;;;;3.95;0.90;;;21.10;40.50;;;;;;4983805;28;20076;-62
2023/06/03 11:59:33;;;;;;;3.20;1.20;;;21.10;39.90;;;;;;4986370;28;20046;-61
2023/06/03 12:02:06;;;;;;;2.67;0.73;;;21.10;39.40;;;;;;4989855;28;20065;-61
2023/06/03 12:04:33;;;;;;;3.03;0.95;;;21.10;40.10;;;;;;4989675;28;20449;-62
2023/06/03 12:07:00;;;;;;;1.65;1.02;;;21.10;39.50;;;;;;4989020;28;20464;-62
2023/06/03 12:09:28;;;;;;;3.92;1.15;;;21.00;38.60;;;;;;4987358;28;20577;-61
2023/06/03 12:11:55;;;;;;;1.88;0.93;;;21.00;40.40;;;;;;4987193;28;20034;-62
2023/06/03 12:14:32;;;;;;;7.18;2.58;;;21.10;39.10;;;;;;4986912;28;20117;-62
2023/06/03 12:17:11;;;;;;;4.80;2.13;;;21.10;40.00;;;;;;4986592;28;20034;-61
2023/06/03 12:19:44;;;;;;;6.63;1.25;;;21.20;39.80;;;;;;4986185;28;20042;-61
2023/06/03 12:22:10;;;;;;;2.40;1.00;;;21.10;40.10;;;;;;4987152;28;20050;-61
2023/06/03 12:24:40;;;;;;;2.63;1.00;;;21.10;39.90;;;;;;4986684;28;20058;-62
2023/06/03 12:27:15;;;;;;;1.70;1.00;;;21.10;40.40;;;;;;4985740;28;20046;-61
2023/06/03 12:29:46;;;;;;;2.72;1.10;;;21.20;39.90;;;;;;4985730;28;20039;-62
2023/06/03 12:32:12;;;;;;;2.08;0.88;;;21.20;39.90;;;;;;4985035;28;20121;-62
2023/06/03 12:34:38;;;;;;;4.97;0.98;;;21.20;38.00;;;;;;4982140;28;20018;-61
2023/06/03 12:37:05;;;;;;;1.00;0.70;;;21.00;40.20;;;;;;4984674;28;20034;-61
2023/06/03 12:39:45;;;;;;;4.90;2.45;;;21.10;39.00;;;;;;4984503;28;20173;-61
2023/06/03 12:42:11;;;;;;;5.80;2.25;;;21.10;39.70;;;;;;4982656;28;20034;-63
2023/06/03 12:44:45;;;;;;;1.70;1.02;;;21.20;39.20;;;;;;4984982;28;20622;-62
2023/06/03 12:47:14;;;;;;;5.03;2.72;;;21.30;38.70;;;;;;4984672;28;20048;-62
2023/06/03 12:49:40;;;;;;;2.80;0.80;;;21.30;39.40;;;;;;4984167;28;20104;-62
2023/06/03 12:52:15;;;;;;;4.22;0.93;;;21.40;38.60;;;;;;4985061;28;20065;-62
2023/06/03 12:54:42;;;;;;;3.15;0.95;;;21.40;39.10;;;;;;4984719;28;20784;-61
2023/06/03 12:57:09;;;;;;;2.42;0.98;;;21.40;38.00;;;;;;4984277;28;20042;-62
2023/06/03 12:59:53;;;;;;;3.10;0.90;;;21.40;38.90;;;;;;4984183;28;20109;-61
2023/06/03 13:02:18;;;;;;;2.22;0.93;;;21.50;38.90;;;;;;4984444;28;20786;-62
2023/06/03 13:04:44;;;;;;;3.65;1.17;;;21.60;39.20;;;;;;4983724;28;20061;-61